Time;durP1;ratioP1;P1;durP2;ratioP2;P2;SDS_P1;SDS_P2;PMS_P1;PMS_P2;Temp;Humidity;BMP_temperature;BMP_pressure;BME280_temperature;BME280_humidity;BME280_pressure;Samples;Min_cycle;Max_cycle;Signal;HPM_P1;HPM_P2
2023/06/29 00:01:02;;;;;;;26.23;17.70;;;19.60;99.90;;;;;;4872125;29;37880;-80
2023/06/29 00:03:29;;;;;;;22.67;16.17;;;19.60;99.90;;;;;;4864819;29;37341;-80
2023/06/29 00:05:55;;;;;;;26.25;17.55;;;19.60;99.90;;;;;;4880562;29;39154;-80
2023/06/29 00:08:24;;;;;;;20.33;16.38;;;19.60;99.90;;;;;;4884367;29;38657;-80
2023/06/29 00:10:51;;;;;;;25.60;17.70;;;19.60;99.90;;;;;;4886540;29;37825;-80
2023/06/29 00:13:17;;;;;;;25.77;17.73;;;19.50;99.90;;;;;;4871119;29;37664;-80
2023/06/29 00:15:43;;;;;;;25.48;18.10;;;19.50;99.90;;;;;;4870482;29;39031;-80
2023/06/29 00:18:09;;;;;;;25.38;18.75;;;19.50;99.90;;;;;;4869765;29;38918;-80
2023/06/29 00:20:35;;;;;;;26.40;18.55;;;19.50;99.90;;;;;;4872414;29;37706;-80
2023/06/29 00:23:02;;;;;;;22.48;16.92;;;19.50;99.90;;;;;;4869136;29;36778;-80
2023/06/29 00:25:28;;;;;;;23.55;17.58;;;19.60;99.90;;;;;;4867850;29;39235;-81
2023/06/29 00:27:54;;;;;;;27.52;18.88;;;19.50;99.90;;;;;;4869267;29;38412;-79
2023/06/29 00:30:21;;;;;;;26.33;17.75;;;19.60;99.90;;;;;;4863603;29;36788;-80
2023/06/29 00:32:47;;;;;;;28.50;18.88;;;19.60;99.90;;;;;;4868703;29;36295;-80
2023/06/29 00:35:13;;;;;;;30.10;19.73;;;19.60;99.90;;;;;;4866434;29;38986;-80
2023/06/29 00:37:42;;;;;;;29.90;19.98;;;19.50;99.90;;;;;;4879424;29;38908;-80
2023/06/29 00:40:09;;;;;;;26.00;18.38;;;19.50;99.90;;;;;;4867664;29;38099;-80
2023/06/29 00:42:36;;;;;;;28.17;19.30;;;19.50;99.90;;;;;;4888322;29;37207;-79
2023/06/29 00:45:05;;;;;;;27.77;17.60;;;19.50;99.90;;;;;;4872291;29;38565;-80
2023/06/29 00:47:33;;;;;;;27.63;18.95;;;19.40;99.90;;;;;;4875169;29;47688;-80
2023/06/29 00:50:00;;;;;;;26.40;17.63;;;19.50;99.90;;;;;;4871049;29;38260;-80
2023/06/29 00:52:30;;;;;;;26.15;17.40;;;19.40;99.90;;;;;;4874611;29;37283;-81
2023/06/29 00:54:59;;;;;;;26.05;17.83;;;19.40;99.90;;;;;;4873873;29;38541;-82
2023/06/29 00:57:25;;;;;;;22.73;16.45;;;19.40;99.90;;;;;;4874440;29;38522;-81
2023/06/29 00:59:52;;;;;;;26.20;18.10;;;19.40;99.90;;;;;;4871944;29;40199;-80
2023/06/29 01:02:18;;;;;;;25.27;17.40;;;19.50;99.90;;;;;;5216054;23;36374;-80
2023/06/29 01:04:48;;;;;;;23.77;16.90;;;19.40;99.90;;;;;;4877978;29;35453;-81
2023/06/29 01:07:17;;;;;;;24.35;17.42;;;19.40;99.90;;;;;;4884429;29;38633;-80
2023/06/29 01:09:46;;;;;;;24.02;17.08;;;19.40;99.90;;;;;;4900721;29;38722;-81
2023/06/29 01:12:15;;;;;;;20.90;16.13;;;19.50;99.90;;;;;;4881039;29;35385;-80
2023/06/29 01:14:43;;;;;;;27.02;18.17;;;19.50;99.90;;;;;;4884275;29;37663;-81
2023/06/29 01:17:18;;;;;;;24.77;17.08;;;19.50;99.90;;;;;;4885260;29;38305;-80
2023/06/29 01:19:48;;;;;;;24.88;18.05;;;19.50;99.90;;;;;;4885730;29;37826;-80
2023/06/29 01:22:37;;;;;;;27.00;18.27;;;19.40;99.90;;;;;;4896910;29;36614;-81
2023/06/29 01:25:04;;;;;;;26.45;18.05;;;19.30;99.90;;;;;;4881428;29;39097;-80
2023/06/29 01:27:30;;;;;;;25.92;19.67;;;19.40;99.90;;;;;;4883960;29;37765;-81
2023/06/29 01:30:00;;;;;;;26.80;19.40;;;19.40;99.90;;;;;;4887566;29;39406;-81
2023/06/29 01:32:35;;;;;;;29.75;19.08;;;19.40;99.90;;;;;;4885228;29;38387;-80
2023/06/29 01:35:02;;;;;;;25.75;19.20;;;19.40;99.90;;;;;;4877626;29;38594;-81
2023/06/29 01:37:39;;;;;;;23.58;17.95;;;19.30;99.90;;;;;;4886526;29;46933;-80
2023/06/29 01:40:09;;;;;;;26.63;19.65;;;19.30;99.90;;;;;;4885804;29;38175;-80
2023/06/29 01:42:37;;;;;;;27.85;20.40;;;19.30;99.90;;;;;;4883593;29;36908;-79
2023/06/29 01:45:06;;;;;;;30.25;21.83;;;19.30;99.90;;;;;;4884408;29;39921;-81
2023/06/29 01:47:33;;;;;;;35.47;23.33;;;19.30;99.90;;;;;;4890873;29;47634;-80
2023/06/29 01:50:01;;;;;;;32.05;21.45;;;19.30;99.90;;;;;;4892651;29;37558;-80
2023/06/29 01:52:27;;;;;;;36.80;22.30;;;19.30;99.90;;;;;;4892324;29;37998;-80
2023/06/29 01:54:54;;;;;;;30.27;20.63;;;19.30;99.90;;;;;;4890327;29;37622;-80
2023/06/29 01:57:20;;;;;;;32.95;22.80;;;19.30;99.90;;;;;;4907417;29;38603;-80
2023/06/29 01:59:46;;;;;;;28.15;21.90;;;19.30;99.90;;;;;;4883221;29;37835;-80
2023/06/29 02:02:12;;;;;;;31.17;21.60;;;19.30;99.90;;;;;;4890959;29;36436;-80
2023/06/29 02:04:39;;;;;;;33.88;23.10;;;19.30;99.90;;;;;;4890226;29;37780;-81
2023/06/29 02:07:05;;;;;;;35.83;23.83;;;19.40;99.90;;;;;;4887951;29;37454;-80
2023/06/29 02:09:31;;;;;;;33.83;23.65;;;19.30;99.90;;;;;;4887229;29;36931;-81
2023/06/29 02:11:57;;;;;;;35.47;23.80;;;19.40;99.90;;;;;;4893306;29;37442;-81
2023/06/29 02:14:23;;;;;;;34.13;24.67;;;19.30;99.90;;;;;;4886318;29;37508;-81
2023/06/29 02:16:51;;;;;;;33.55;24.10;;;19.30;99.90;;;;;;4890894;29;38371;-81
2023/06/29 02:19:17;;;;;;;38.60;23.27;;;19.30;99.90;;;;;;4886979;29;37883;-80
2023/06/29 02:21:43;;;;;;;34.55;23.55;;;19.30;99.90;;;;;;4890010;29;36587;-81
2023/06/29 02:24:09;;;;;;;37.30;25.38;;;19.30;99.90;;;;;;4884236;29;37933;-81
2023/06/29 02:26:36;;;;;;;35.78;25.48;;;19.30;99.90;;;;;;4889421;29;37211;-80
2023/06/29 02:29:02;;;;;;;38.80;24.05;;;19.30;99.90;;;;;;4886769;29;38658;-79
2023/06/29 02:31:28;;;;;;;36.67;25.20;;;19.20;99.90;;;;;;4884009;29;36950;-76
2023/06/29 02:33:54;;;;;;;41.08;26.50;;;19.30;99.90;;;;;;4889290;29;38957;-78
2023/06/29 02:36:21;;;;;;;38.08;26.00;;;19.30;99.90;;;;;;4885599;29;38611;-79
2023/06/29 02:38:48;;;;;;;42.80;26.85;;;19.30;99.90;;;;;;4888702;29;38188;-80
2023/06/29 02:41:14;;;;;;;35.75;25.67;;;19.30;99.90;;;;;;4888036;29;37639;-81
2023/06/29 02:43:41;;;;;;;37.15;25.20;;;19.30;99.90;;;;;;4887707;29;38900;-82
2023/06/29 02:46:07;;;;;;;37.22;26.17;;;19.30;99.90;;;;;;4889980;29;38167;-81
2023/06/29 02:48:33;;;;;;;36.03;25.45;;;19.30;99.90;;;;;;4888676;29;36396;-81
2023/06/29 02:50:59;;;;;;;40.35;25.00;;;19.30;99.90;;;;;;4886752;29;37524;-82
2023/06/29 02:53:26;;;;;;;38.88;26.27;;;19.30;99.90;;;;;;4890123;29;38323;-81
2023/06/29 02:55:52;;;;;;;38.92;25.70;;;19.30;99.90;;;;;;4888078;29;37653;-79
2023/06/29 02:58:18;;;;;;;32.53;24.30;;;19.30;99.90;;;;;;4887382;29;38490;-80
2023/06/29 03:00:44;;;;;;;36.42;25.58;;;19.30;99.90;;;;;;4890433;29;38295;-79
2023/06/29 03:03:10;;;;;;;34.38;25.25;;;19.30;99.90;;;;;;4892273;29;39064;-82
2023/06/29 03:05:36;;;;;;;39.13;26.23;;;19.30;99.90;;;;;;4890446;29;38499;-80
2023/06/29 03:08:04;;;;;;;37.65;24.95;;;19.30;99.90;;;;;;4888432;29;38813;-81
2023/06/29 03:10:30;;;;;;;35.70;25.58;;;19.30;99.90;;;;;;4889482;29;36643;-80
2023/06/29 03:12:56;;;;;;;36.67;26.02;;;19.30;99.90;;;;;;4891169;29;37688;-81
2023/06/29 03:15:23;;;;;;;35.22;25.00;;;19.30;99.90;;;;;;4890517;29;38329;-80
2023/06/29 03:17:49;;;;;;;34.10;24.20;;;19.20;99.90;;;;;;4889006;29;38307;-81
2023/06/29 03:20:15;;;;;;;32.30;23.90;;;19.20;99.90;;;;;;4888874;29;36627;-80
2023/06/29 03:22:41;;;;;;;34.97;22.67;;;19.20;99.90;;;;;;4891268;29;38546;-80
2023/06/29 03:25:12;;;;;;;31.55;22.35;;;19.20;99.90;;;;;;4887655;29;38313;-81
2023/06/29 03:27:39;;;;;;;31.90;22.67;;;19.10;99.90;;;;;;4885738;29;37942;-81
2023/06/29 03:30:05;;;;;;;32.00;22.50;;;19.20;99.90;;;;;;4888474;29;36296;-80
2023/06/29 03:32:32;;;;;;;29.50;21.27;;;19.10;99.90;;;;;;4885886;29;37780;-79
2023/06/29 03:34:58;;;;;;;28.48;20.73;;;19.20;99.90;;;;;;4890849;29;37639;-82
2023/06/29 03:37:24;;;;;;;30.73;21.42;;;19.10;99.90;;;;;;4888675;29;38383;-82
2023/06/29 03:39:50;;;;;;;29.45;20.15;;;19.20;99.90;;;;;;4882204;29;36344;-82
2023/06/29 03:42:17;;;;;;;30.67;20.38;;;19.10;99.90;;;;;;4888553;29;38423;-81
2023/06/29 03:44:43;;;;;;;23.63;19.52;;;19.10;99.90;;;;;;4887080;29;38772;-82
2023/06/29 03:47:09;;;;;;;29.17;19.00;;;19.10;99.90;;;;;;4884174;29;38140;-80
2023/06/29 03:49:35;;;;;;;27.25;20.08;;;19.10;99.90;;;;;;4883200;29;37507;-81
2023/06/29 03:52:03;;;;;;;27.92;19.58;;;19.10;99.90;;;;;;4891512;29;20522;-80
2023/06/29 03:54:29;;;;;;;24.27;18.10;;;19.10;99.90;;;;;;4888126;29;38020;-81
2023/06/29 03:56:55;;;;;;;25.52;18.40;;;19.10;99.90;;;;;;4883427;29;38627;-82
2023/06/29 03:59:21;;;;;;;26.15;19.55;;;19.10;99.90;;;;;;4886561;29;36277;-80
2023/06/29 04:01:47;;;;;;;25.10;18.95;;;19.10;99.90;;;;;;4877318;29;37562;-81
2023/06/29 04:04:13;;;;;;;26.25;18.95;;;19.10;99.90;;;;;;4888707;29;38680;-81
2023/06/29 04:06:39;;;;;;;27.52;18.27;;;19.10;99.90;;;;;;4882804;29;38190;-82
2023/06/29 04:09:06;;;;;;;23.40;17.83;;;19.20;99.90;;;;;;4884985;29;39006;-81
2023/06/29 04:11:32;;;;;;;26.60;19.35;;;19.10;99.90;;;;;;4881927;29;37861;-82
2023/06/29 04:13:58;;;;;;;26.40;18.70;;;19.10;99.90;;;;;;4889057;29;38350;-81
2023/06/29 04:16:24;;;;;;;29.60;19.80;;;19.10;99.90;;;;;;4885000;29;38254;-81
2023/06/29 04:18:50;;;;;;;26.98;18.45;;;19.10;99.90;;;;;;4884744;29;37803;-82
2023/06/29 04:21:16;;;;;;;23.92;18.98;;;19.10;99.90;;;;;;4871634;29;41185;-80
2023/06/29 04:23:42;;;;;;;28.70;20.48;;;19.10;99.90;;;;;;4889517;29;37700;-81
2023/06/29 04:26:10;;;;;;;29.13;21.83;;;19.00;99.90;;;;;;4886853;29;38481;-83
2023/06/29 04:28:36;;;;;;;31.73;20.90;;;19.00;99.90;;;;;;4883914;29;37842;-81
2023/06/29 04:31:02;;;;;;;27.45;20.52;;;19.00;99.90;;;;;;4882207;29;40340;-82
2023/06/29 04:33:29;;;;;;;30.30;21.00;;;19.00;99.90;;;;;;4881520;29;37675;-81
2023/06/29 04:35:55;;;;;;;29.15;21.75;;;18.90;99.90;;;;;;4882480;29;37951;-82
2023/06/29 04:38:25;;;;;;;29.67;22.20;;;19.00;99.90;;;;;;4886713;29;38424;-82
2023/06/29 04:41:04;;;;;;;31.08;21.98;;;19.00;99.90;;;;;;4882018;29;38940;-82
2023/06/29 04:43:32;;;;;;;27.65;20.88;;;18.90;99.90;;;;;;4887729;29;48513;-82
2023/06/29 04:46:00;;;;;;;29.13;20.85;;;19.00;99.90;;;;;;4883510;29;37386;-81
2023/06/29 04:48:36;;;;;;;32.88;22.05;;;19.00;99.90;;;;;;4898706;28;37799;-81
2023/06/29 04:51:05;;;;;;;29.30;21.15;;;19.00;99.90;;;;;;4900438;28;38753;-81
2023/06/29 04:53:34;;;;;;;31.42;22.15;;;19.00;99.90;;;;;;4885255;29;37728;-81
2023/06/29 04:56:01;;;;;;;36.58;22.70;;;19.00;99.90;;;;;;4881179;29;39130;-79
2023/06/29 04:58:28;;;;;;;30.02;22.75;;;19.10;99.90;;;;;;4881745;29;47387;-79
2023/06/29 05:00:54;;;;;;;29.17;22.40;;;19.10;99.90;;;;;;4884318;29;38014;-80
2023/06/29 05:03:21;;;;;;;32.58;22.75;;;19.10;99.90;;;;;;4882935;29;37225;-80
2023/06/29 05:05:47;;;;;;;33.72;23.30;;;19.10;99.90;;;;;;4891636;29;37938;-82
2023/06/29 05:08:13;;;;;;;29.75;22.65;;;19.00;99.90;;;;;;4888228;29;37276;-81
2023/06/29 05:10:39;;;;;;;32.83;23.75;;;19.00;99.90;;;;;;4886909;29;38239;-81
2023/06/29 05:13:05;;;;;;;33.38;23.38;;;18.90;99.90;;;;;;4887477;29;38584;-79
2023/06/29 05:15:31;;;;;;;33.03;23.58;;;18.90;99.90;;;;;;4889802;29;37000;-80
2023/06/29 05:17:58;;;;;;;33.47;23.70;;;18.90;99.90;;;;;;4885794;29;37699;-82
2023/06/29 05:20:24;;;;;;;36.47;25.50;;;18.90;99.90;;;;;;4882589;29;37533;-79
2023/06/29 05:22:50;;;;;;;32.88;24.17;;;18.90;99.90;;;;;;4892538;29;38380;-82
2023/06/29 05:25:16;;;;;;;38.20;26.20;;;18.90;99.90;;;;;;4884959;29;37305;-80
2023/06/29 05:27:42;;;;;;;35.13;24.63;;;18.90;99.90;;;;;;4897529;29;40633;-78
2023/06/29 05:30:09;;;;;;;33.22;23.58;;;18.90;99.90;;;;;;4889093;29;39480;-76
2023/06/29 05:32:36;;;;;;;33.42;24.55;;;18.90;99.90;;;;;;4888626;29;37344;-77
2023/06/29 05:35:02;;;;;;;37.72;25.77;;;19.00;99.90;;;;;;4887741;29;38574;-77
2023/06/29 05:37:33;;;;;;;35.88;25.38;;;19.00;99.90;;;;;;4883135;29;36952;-77
2023/06/29 05:39:59;;;;;;;37.53;25.60;;;19.10;99.90;;;;;;4889145;29;38080;-79
2023/06/29 05:42:26;;;;;;;37.20;25.65;;;19.10;99.90;;;;;;4889313;29;37638;-79
2023/06/29 05:44:53;;;;;;;33.88;24.83;;;19.10;99.90;;;;;;4894811;28;38873;-84
2023/06/29 05:47:19;;;;;;;34.30;24.58;;;19.10;99.90;;;;;;4888057;29;37642;-84
2023/06/29 05:49:45;;;;;;;34.33;23.75;;;19.20;99.90;;;;;;4885617;29;39797;-85
2023/06/29 05:52:11;;;;;;;35.67;25.75;;;19.10;99.90;;;;;;4891674;29;38576;-83
2023/06/29 05:54:38;;;;;;;36.95;24.77;;;19.10;99.90;;;;;;4889507;29;37627;-83
2023/06/29 05:57:04;;;;;;;40.67;27.10;;;19.00;99.90;;;;;;4901759;29;37738;-81
2023/06/29 05:59:31;;;;;;;38.13;26.95;;;19.00;99.90;;;;;;4890412;29;38569;-82
2023/06/29 06:01:57;;;;;;;36.47;26.80;;;19.10;99.90;;;;;;4891106;29;38892;-83
2023/06/29 06:04:23;;;;;;;41.08;28.27;;;19.10;99.90;;;;;;4885827;29;37325;-84
2023/06/29 06:06:49;;;;;;;35.97;26.27;;;19.10;99.90;;;;;;4890245;29;36494;-84
2023/06/29 06:09:15;;;;;;;39.22;27.25;;;19.20;99.90;;;;;;4889883;29;39676;-85
2023/06/29 06:11:41;;;;;;;39.90;27.10;;;19.20;99.90;;;;;;4888799;29;38715;-83
2023/06/29 06:14:07;;;;;;;40.72;29.33;;;19.10;99.90;;;;;;4890678;29;36872;-87
2023/06/29 06:16:34;;;;;;;39.85;27.98;;;19.20;99.90;;;;;;4888944;29;38451;-85
2023/06/29 06:19:00;;;;;;;37.47;26.98;;;19.30;99.90;;;;;;4889220;29;38060;-85
2023/06/29 06:21:26;;;;;;;42.13;26.63;;;19.40;99.90;;;;;;4885294;29;37854;-85
2023/06/29 06:23:53;;;;;;;40.15;28.30;;;19.50;99.90;;;;;;4891571;29;38537;-84
2023/06/29 06:26:19;;;;;;;38.90;27.02;;;19.60;99.90;;;;;;4888551;29;36258;-84
2023/06/29 06:28:45;;;;;;;39.13;29.10;;;19.60;99.90;;;;;;4900265;29;39026;-84
2023/06/29 06:31:12;;;;;;;39.30;27.90;;;19.60;99.90;;;;;;4889755;29;37218;-82
2023/06/29 06:33:40;;;;;;;34.80;26.52;;;19.60;99.90;;;;;;4891578;29;37502;-83
2023/06/29 06:36:07;;;;;;;43.88;29.85;;;19.80;99.90;;;;;;4882645;29;37121;-83
2023/06/29 06:38:33;;;;;;;42.15;29.48;;;19.80;99.90;;;;;;4885750;29;39022;-86
2023/06/29 06:40:59;;;;;;;37.75;27.35;;;19.90;99.90;;;;;;4883616;29;37702;-83
2023/06/29 06:43:25;;;;;;;34.85;26.85;;;19.90;99.90;;;;;;4895218;29;37547;-84
2023/06/29 06:45:52;;;;;;;37.42;28.65;;;19.80;99.90;;;;;;4893860;29;38013;-83
2023/06/29 06:48:20;;;;;;;38.70;28.27;;;19.90;99.90;;;;;;4890854;28;38980;-85
2023/06/29 06:50:46;;;;;;;41.28;28.88;;;20.00;99.90;;;;;;4884750;29;37127;-83
2023/06/29 06:53:12;;;;;;;39.53;27.85;;;20.00;99.90;;;;;;4887323;29;37613;-84
2023/06/29 06:55:38;;;;;;;35.83;26.45;;;19.90;99.90;;;;;;4890055;29;36658;-83
2023/06/29 06:58:06;;;;;;;40.28;27.15;;;20.10;99.90;;;;;;4879753;29;38117;-85
2023/06/29 07:00:32;;;;;;;36.35;26.20;;;20.00;99.90;;;;;;4889683;29;38009;-83
2023/06/29 07:02:58;;;;;;;32.38;25.48;;;20.10;99.90;;;;;;4888427;29;37216;-83
2023/06/29 07:05:24;;;;;;;35.45;26.33;;;20.10;99.90;;;;;;4886850;29;37363;-81
2023/06/29 07:07:53;;;;;;;34.97;25.63;;;20.10;99.90;;;;;;4889895;29;37682;-81
2023/06/29 07:10:19;;;;;;;32.90;23.63;;;20.10;99.90;;;;;;4902842;29;37855;-81
2023/06/29 07:12:46;;;;;;;31.75;24.52;;;20.10;99.90;;;;;;4890556;29;37555;-81
2023/06/29 07:15:12;;;;;;;38.10;25.45;;;20.00;99.90;;;;;;4883250;29;36157;-81
2023/06/29 07:17:38;;;;;;;33.95;24.92;;;20.00;99.90;;;;;;4885889;29;37630;-80
2023/06/29 07:20:06;;;;;;;35.83;24.67;;;20.00;99.90;;;;;;4886412;29;38118;-82
2023/06/29 07:22:32;;;;;;;36.70;25.83;;;20.10;99.90;;;;;;4887610;29;47272;-81
2023/06/29 07:24:58;;;;;;;36.05;25.92;;;20.20;99.90;;;;;;4885805;29;36319;-81
2023/06/29 07:27:24;;;;;;;32.58;23.73;;;20.30;99.90;;;;;;4889259;29;39890;-82
2023/06/29 07:29:51;;;;;;;30.40;23.75;;;20.30;99.90;;;;;;4894829;29;37642;-83
2023/06/29 07:32:17;;;;;;;30.25;23.42;;;20.40;99.90;;;;;;4885674;29;37008;-82
2023/06/29 07:34:43;;;;;;;35.28;25.70;;;20.40;99.90;;;;;;4889367;29;36230;-79
2023/06/29 07:37:09;;;;;;;36.22;24.73;;;20.30;99.90;;;;;;4885583;29;39684;-81
2023/06/29 07:39:35;;;;;;;39.40;25.23;;;20.30;99.90;;;;;;4885744;29;38907;-82
2023/06/29 07:42:01;;;;;;;31.85;23.88;;;20.20;99.90;;;;;;4887148;29;37924;-82
2023/06/29 07:44:31;;;;;;;28.52;23.35;;;20.20;99.90;;;;;;4883113;29;47306;-82
2023/06/29 07:46:57;;;;;;;34.42;24.42;;;20.30;99.90;;;;;;4885337;29;38212;-80
2023/06/29 07:49:23;;;;;;;30.52;23.30;;;20.30;99.90;;;;;;4886882;29;37692;-82
2023/06/29 07:51:49;;;;;;;30.83;23.30;;;20.30;99.90;;;;;;4888957;29;37567;-81
2023/06/29 07:54:16;;;;;;;33.85;25.05;;;20.30;99.90;;;;;;4888397;29;37992;-81
2023/06/29 07:56:42;;;;;;;36.30;25.70;;;20.30;99.90;;;;;;4888323;29;38829;-81
2023/06/29 07:59:08;;;;;;;37.42;26.45;;;20.20;99.90;;;;;;4886929;29;37423;-82
2023/06/29 08:01:37;;;;;;;38.00;25.75;;;20.10;99.90;;;;;;4902475;29;38503;-83
2023/06/29 08:04:04;;;;;;;36.90;24.95;;;20.10;99.90;;;;;;4887939;29;36577;-83
2023/06/29 08:06:33;;;;;;;32.45;24.52;;;20.10;99.90;;;;;;4886984;29;37636;-81
2023/06/29 08:09:00;;;;;;;33.50;25.35;;;20.10;99.90;;;;;;4884053;29;37952;-85
2023/06/29 08:11:32;;;;;;;32.55;24.48;;;20.10;99.90;;;;;;4884865;29;38333;-80
2023/06/29 08:13:58;;;;;;;37.25;26.73;;;20.10;99.90;;;;;;4884426;29;36475;-76
2023/06/29 08:16:25;;;;;;;35.03;26.10;;;20.10;99.90;;;;;;4884356;29;40632;-81
2023/06/29 08:18:51;;;;;;;36.20;24.83;;;20.10;99.90;;;;;;4885088;29;37711;-75
2023/06/29 08:21:17;;;;;;;35.85;25.40;;;20.10;99.90;;;;;;4880807;29;38522;-81
2023/06/29 08:23:46;;;;;;;38.47;26.33;;;20.20;99.90;;;;;;4884563;29;39050;-82
2023/06/29 08:26:12;;;;;;;34.97;25.33;;;20.30;99.90;;;;;;4885888;29;38169;-80
2023/06/29 08:28:38;;;;;;;36.28;26.90;;;20.40;99.90;;;;;;4883724;29;37242;-77
2023/06/29 08:31:04;;;;;;;35.67;26.33;;;20.40;99.90;;;;;;4884882;29;37678;-74
2023/06/29 08:33:30;;;;;;;34.55;26.60;;;20.40;99.90;;;;;;4878114;29;37810;-76
2023/06/29 08:35:57;;;;;;;32.97;25.90;;;20.40;99.90;;;;;;4887315;29;37989;-76
2023/06/29 08:38:23;;;;;;;32.95;26.55;;;20.40;99.90;;;;;;4888308;29;38189;-75
2023/06/29 08:40:49;;;;;;;34.08;26.33;;;20.40;99.90;;;;;;4875393;29;38013;-80
2023/06/29 08:43:17;;;;;;;36.65;26.67;;;20.40;99.90;;;;;;4878982;29;36619;-81
2023/06/29 08:45:47;;;;;;;30.88;24.88;;;20.40;99.90;;;;;;4895316;29;38915;-80
2023/06/29 08:48:14;;;;;;;37.17;26.15;;;20.50;99.90;;;;;;4891143;29;37351;-81
2023/06/29 08:50:45;;;;;;;33.28;24.75;;;20.50;99.90;;;;;;4878491;29;37182;-79
2023/06/29 08:53:13;;;;;;;33.30;24.83;;;20.50;99.90;;;;;;4886886;29;36739;-76
2023/06/29 08:55:41;;;;;;;37.90;24.20;;;20.60;99.90;;;;;;4885974;29;37464;-75
2023/06/29 08:58:08;;;;;;;28.92;22.63;;;20.70;99.90;;;;;;4894352;29;39175;-79
2023/06/29 09:00:36;;;;;;;30.67;23.27;;;20.80;99.90;;;;;;4885467;29;39058;-83
2023/06/29 09:03:03;;;;;;;31.67;23.92;;;20.90;99.90;;;;;;4885637;29;37381;-84
2023/06/29 09:05:36;;;;;;;29.90;22.17;;;21.20;99.90;;;;;;4891251;29;38582;-83
2023/06/29 09:08:02;;;;;;;26.55;21.02;;;21.70;99.90;;;;;;4897794;29;37250;-84
2023/06/29 09:10:28;;;;;;;26.40;19.33;;;22.10;99.90;;;;;;4884842;29;39168;-83
2023/06/29 09:12:55;;;;;;;30.48;21.00;;;22.60;99.90;;;;;;4888620;29;36747;-82
2023/06/29 09:15:25;;;;;;;27.98;21.13;;;22.40;99.90;;;;;;4893734;29;39782;-82
2023/06/29 09:17:55;;;;;;;27.38;20.52;;;22.40;99.90;;;;;;4884669;29;37270;-84
2023/06/29 09:20:22;;;;;;;23.95;19.42;;;22.20;99.90;;;;;;4889427;29;37938;-84
2023/06/29 09:22:51;;;;;;;24.38;18.98;;;22.20;99.90;;;;;;4883449;29;36584;-84
2023/06/29 09:25:18;;;;;;;27.38;18.67;;;22.30;99.90;;;;;;4891374;29;39203;-83
2023/06/29 09:27:45;;;;;;;24.48;17.77;;;22.40;99.90;;;;;;4892707;29;38571;-81
2023/06/29 09:30:21;;;;;;;22.48;17.30;;;22.50;99.90;;;;;;4891168;29;36892;-83
2023/06/29 09:32:47;;;;;;;20.85;17.17;;;22.70;99.90;;;;;;4890299;29;38077;-85
2023/06/29 09:35:13;;;;;;;21.52;15.55;;;22.70;99.90;;;;;;4884335;29;38738;-83
2023/06/29 09:37:40;;;;;;;18.95;15.57;;;22.70;99.90;;;;;;4874475;29;37408;-82
2023/06/29 09:40:09;;;;;;;22.65;15.52;;;23.10;99.90;;;;;;4882837;29;37899;-88
2023/06/29 09:42:39;;;;;;;24.00;15.00;;;23.10;99.90;;;;;;4882996;29;36405;-83
2023/06/29 09:45:11;;;;;;;21.98;14.48;;;23.00;99.90;;;;;;4900438;29;37924;-82
2023/06/29 09:47:40;;;;;;;21.27;14.50;;;23.10;99.90;;;;;;4890887;29;39011;-82
2023/06/29 09:50:21;;;;;;;22.40;13.40;;;23.00;99.90;;;;;;4905887;29;38383;-84
2023/06/29 09:52:51;;;;;;;16.95;12.02;;;22.80;99.90;;;;;;4889667;29;36712;-83
2023/06/29 09:55:18;;;;;;;17.13;12.23;;;23.20;99.90;;;;;;4880775;29;38814;-81
2023/06/29 09:57:45;;;;;;;43.95;11.70;;;23.80;99.90;;;;;;4887976;29;37885;-87
2023/06/29 10:00:13;;;;;;;18.42;10.77;;;23.90;99.90;;;;;;4887587;29;37050;-82
2023/06/29 10:02:40;;;;;;;12.65;9.75;;;24.20;99.90;;;;;;4886286;29;36628;-83
2023/06/29 10:05:08;;;;;;;17.38;11.88;;;24.10;99.90;;;;;;4899230;29;38526;-82
2023/06/29 10:07:35;;;;;;;15.75;10.98;;;24.00;99.90;;;;;;4902551;29;37591;-83
2023/06/29 10:10:04;;;;;;;18.80;10.45;;;23.90;99.90;;;;;;4887015;29;37389;-84
2023/06/29 10:12:33;;;;;;;14.30;10.93;;;24.20;99.90;;;;;;4884999;29;36444;-82
2023/06/29 10:15:09;;;;;;;16.55;11.50;;;24.30;99.90;;;;;;4882835;29;37530;-93
2023/06/29 10:17:46;;;;;;;14.98;11.40;;;24.30;99.90;;;;;;4897739;29;48154;-84
2023/06/29 10:20:14;;;;;;;13.93;10.68;;;24.00;99.90;;;;;;4879203;29;38429;-83
2023/06/29 10:22:41;;;;;;;13.95;10.45;;;24.10;99.90;;;;;;4884409;29;37681;-85
2023/06/29 10:25:12;;;;;;;20.33;11.05;;;24.30;99.90;;;;;;4887970;29;38790;-85
2023/06/29 10:27:39;;;;;;;14.88;10.68;;;24.50;99.90;;;;;;4888168;29;38875;-84
2023/06/29 10:30:06;;;;;;;20.40;11.05;;;24.60;99.90;;;;;;4885929;29;39105;-80
2023/06/29 10:32:39;;;;;;;19.55;11.40;;;24.80;99.90;;;;;;4879546;29;47671;-80
2023/06/29 10:35:12;;;;;;;17.15;11.55;;;24.70;99.90;;;;;;4882992;29;37481;-79
2023/06/29 10:37:38;;;;;;;19.00;11.27;;;24.70;99.90;;;;;;4885076;29;37658;-86
2023/06/29 10:40:26;;;;;;;15.70;11.25;;;24.60;99.90;;;;;;4883594;29;39586;-78
2023/06/29 10:42:54;;;;;;;13.35;10.82;;;24.40;99.90;;;;;;4881730;29;37031;-79
2023/06/29 10:45:21;;;;;;;15.15;11.27;;;24.30;99.90;;;;;;4883882;29;39665;-78
2023/06/29 10:47:56;;;;;;;15.05;10.57;;;24.40;99.90;;;;;;4894673;29;38055;-78
2023/06/29 10:50:24;;;;;;;15.30;10.90;;;24.60;99.90;;;;;;4887899;29;37898;-79
2023/06/29 10:52:51;;;;;;;15.52;10.38;;;24.70;99.90;;;;;;4889675;29;36374;-78
2023/06/29 10:55:19;;;;;;;14.93;10.30;;;24.80;99.90;;;;;;4885776;29;38772;-78
2023/06/29 10:57:52;;;;;;;17.15;10.80;;;24.90;99.90;;;;;;4889624;29;38730;-79
2023/06/29 11:00:18;;;;;;;17.13;10.85;;;24.90;99.90;;;;;;4902100;29;37326;-79
2023/06/29 11:02:47;;;;;;;15.15;11.55;;;24.70;99.90;;;;;;4888381;29;47158;-79
2023/06/29 11:05:19;;;;;;;16.85;11.18;;;24.50;99.90;;;;;;4885550;29;37384;-78
2023/06/29 11:07:48;;;;;;;11.40;8.80;;;24.20;99.90;;;;;;4888483;29;38588;-79
2023/06/29 11:10:14;;;;;;;14.68;10.13;;;24.60;99.90;;;;;;4886430;29;38005;-81
2023/06/29 11:12:41;;;;;;;16.42;11.27;;;24.80;99.90;;;;;;4879441;29;37468;-80
2023/06/29 11:15:12;;;;;;;18.88;12.35;;;24.60;99.90;;;;;;4899266;29;38676;-78
2023/06/29 11:17:43;;;;;;;19.75;12.32;;;24.30;99.90;;;;;;4884184;29;39120;-81
2023/06/29 11:20:14;;;;;;;18.63;12.10;;;24.00;99.90;;;;;;4883357;29;38025;-84
2023/06/29 11:22:41;;;;;;;17.80;12.13;;;24.00;99.90;;;;;;4887753;29;36535;-84
2023/06/29 11:25:16;;;;;;;20.92;13.30;;;23.70;99.90;;;;;;4878203;29;38833;-86
2023/06/29 11:27:44;;;;;;;19.55;12.43;;;23.40;99.90;;;;;;4895171;29;37352;-84
2023/06/29 11:30:10;;;;;;;19.05;13.52;;;23.20;99.90;;;;;;4884517;29;38962;-84
2023/06/29 11:32:37;;;;;;;16.83;12.15;;;23.00;99.90;;;;;;4884707;29;36767;-82
2023/06/29 11:35:13;;;;;;;17.95;13.27;;;22.80;99.90;;;;;;4888304;29;37532;-83
2023/06/29 11:37:40;;;;;;;17.48;12.82;;;23.00;99.90;;;;;;4887392;29;46771;-79
2023/06/29 11:40:17;;;;;;;17.65;12.40;;;22.80;99.90;;;;;;4889771;29;36957;-79
2023/06/29 11:42:43;;;;;;;20.08;12.80;;;22.90;99.90;;;;;;4887211;29;48909;-80
2023/06/29 11:45:10;;;;;;;20.00;13.95;;;22.90;99.90;;;;;;4903364;29;37537;-78
2023/06/29 11:47:37;;;;;;;20.75;14.38;;;22.90;99.90;;;;;;4903239;29;37139;-79
2023/06/29 11:50:07;;;;;;;18.63;13.15;;;23.00;99.90;;;;;;4889423;29;38097;-78
2023/06/29 11:52:34;;;;;;;17.92;13.93;;;22.70;99.90;;;;;;4885612;29;47380;-78
2023/06/29 11:55:02;;;;;;;22.60;14.20;;;22.80;99.90;;;;;;4886664;29;37838;-79
2023/06/29 11:57:40;;;;;;;23.50;14.05;;;23.00;99.90;;;;;;4884368;29;39382;-77
2023/06/29 12:00:30;;;;;;;20.60;15.27;;;23.20;99.90;;;;;;4902299;29;39203;-78
2023/06/29 12:03:04;;;;;;;19.85;14.30;;;23.00;99.90;;;;;;4888689;29;37747;-79
2023/06/29 12:05:31;;;;;;;21.38;15.10;;;22.80;99.90;;;;;;4886662;29;47073;-77
2023/06/29 12:08:05;;;;;;;20.33;15.52;;;22.90;99.90;;;;;;4890166;29;37306;-77
2023/06/29 12:10:38;;;;;;;21.35;15.38;;;22.90;99.90;;;;;;4888133;29;48610;-81
2023/06/29 12:13:08;;;;;;;21.90;16.33;;;22.80;99.90;;;;;;4884426;29;37682;-79
2023/06/29 12:15:35;;;;;;;20.10;14.20;;;22.80;99.90;;;;;;4903176;29;35479;-81
2023/06/29 12:18:15;;;;;;;24.20;16.20;;;23.00;99.90;;;;;;4887340;29;38497;-81
2023/06/29 12:20:45;;;;;;;23.42;16.38;;;23.50;99.90;;;;;;4886655;29;48243;-80
2023/06/29 12:23:13;;;;;;;20.33;14.88;;;23.60;99.90;;;;;;4885231;29;37406;-81
2023/06/29 12:25:48;;;;;;;17.90;14.02;;;23.80;99.90;;;;;;4881154;29;37859;-81
2023/06/29 12:28:14;;;;;;;21.42;14.80;;;23.70;99.90;;;;;;4882268;29;37763;-83
2023/06/29 12:30:41;;;;;;;19.48;15.15;;;23.80;99.90;;;;;;4886735;29;37143;-83